Flight Track Log - Related Links

Times and Time Zones

All times are in EDT time to prevent confusion due to time zone crossing. See the N5101S flight status page for this flight to view local times or setup timezone preferences in your user account.


Time Position Orientation Groundspeed Altitude Reporting Facility
EDT Latitude Longitude Course Direction KTS MPH feet Rate Location/Type
Mon 11:14:15 AM 30.3433 -93.8450 56° Northeast 125 144 7,400  Level Houston Center
Mon 11:15:17 AM 30.3631 -93.8114 56° Northeast 126 145 7,400  Level Houston Center
Mon 11:16:19 AM 30.3825 -93.7767 57° Northeast 126 145 7,400  Level Houston Center
Mon 11:17:22 AM 30.4022 -93.7431 56° Northeast 127 146 7,400  Level Houston Center
Mon 11:18:23 AM 30.4219 -93.7089 56° Northeast 127 146 7,400  Level Houston Center
Mon 11:19:25 AM 30.4414 -93.6747 57° Northeast 126 145 7,400  Level Houston Center
Mon 11:20:27 AM 30.4647 -93.6339 56° Northeast 125 144 7,400  Level Houston Center
Mon 11:21:30 AM 30.4836 -93.5997 57° Northeast 125 144 7,400  Level Houston Center
Mon 11:22:32 AM 30.5031 -93.5661 56° Northeast 124 143 7,400  Level Houston Center
Mon 11:23:34 AM 30.5222 -93.5325 56° Northeast 123 142 7,400  Level Houston Center
Mon 11:24:42 AM 30.5447 -93.4919 57° Northeast 123 142 7,400  Level Houston Center
Mon 11:25:38 AM 30.5600 -93.4661 56° Northeast 125 144 7,400  Level Houston Center
Mon 11:26:40 AM 30.5828 -93.4256 57° Northeast 124 143 7,400  Level Houston Center
Mon 11:27:42 AM 30.6028 -93.3919 55° Northeast 125 144 7,400  Level Houston Center
Mon 11:28:39 AM 30.6206 -93.3603 57° Northeast 127 146 7,400  Level Houston Center
Mon 11:29:46 AM 30.6411 -93.3236 57° Northeast 125 144 7,400  Level Houston Center
Mon 11:30:48 AM 30.6606 -93.2894 57° Northeast 126 145 7,400  Level Houston Center
Mon 11:31:41 AM 30.6792 -93.2561 57° Northeast 128 147 7,400  Level Houston Center
Mon 11:32:41 AM 30.6981 -93.2231 56° Northeast 129 148 7,400  Level Houston Center
Mon 11:33:55 AM 30.7231 -93.1797 56° Northeast 127 146 7,400  Level Houston Center
Mon 11:34:57 AM 30.7414 -93.1450 58° Northeast 126 145 7,400  Level Houston Center
Mon 11:35:55 AM 30.7622 -93.1086 56° Northeast 127 146 7,400  Level Houston Center
Mon 11:36:56 AM 30.7811 -93.0756 56° Northeast 129 148 7,400  Level Houston Center
Mon 11:38:02 AM 30.8036 -93.0372 56° Northeast 128 147 7,400  Level Houston Center
Mon 11:39:05 AM 30.8236 -93.0006 58° Northeast 127 146 7,400  Level Houston Center
Mon 11:40:04 AM 30.8414 -92.9711 55° Northeast 123 142 7,400  Level Houston Center
Mon 11:41:10 AM 30.8594 -92.9356 59° Northeast 126 145 7,400  Level Houston Center
Mon 11:41:47 AM 30.8753 -92.9097 54° Northeast 129 148 7,400  Level Houston Center
Mon 11:42:48 AM 30.8939 -92.8742 59° Northeast 130 150 7,400  Level Houston Center
Mon 11:44:16 AM 30.9233 -92.8231 56° Northeast 130 150 7,400  Level Houston Center
Mon 11:45:07 AM 30.9408 -92.7925 56° Northeast 131 151 7,400  Level Houston Center
Mon 11:45:50 AM 30.9558 -92.7669 56° Northeast 132 152 7,400  Level Houston Center
Mon 11:46:20 AM 30.9633 -92.7522 59° Northeast 130 150 7,400  Level Houston Center
Mon 11:46:50 AM 30.9767 -92.7311 54° Northeast 130 150 7,400  Level Houston Center
Mon 11:47:22 AM 30.9825 -92.7169 64° Northeast 129 148 7,400  Level Houston Center
Mon 11:48:24 AM 31.0072 -92.6744 56° Northeast 131 151 7,400  Level Houston Center
Mon 11:49:27 AM 31.0261 -92.6400 57° Northeast 129 148 7,400  Level Houston Center
Mon 11:50:29 AM 31.0453 -92.6044 58° Northeast 130 150 7,400  Level Houston Center
Mon 11:51:31 AM 31.0650 -92.5700 56° Northeast 128 147 7,400  Level Houston Center
Mon 11:52:33 AM 31.0836 -92.5358 58° Northeast 126 145 7,400  Level Houston Center
Mon 11:53:35 AM 31.1033 -92.5019 56° Northeast 127 146 7,400  Level Houston Center
Mon 11:54:08 AM 31.1169 -92.4778 57° Northeast 127 146 7,400  Level Houston Center
Mon 11:55:08 AM 31.1375 -92.4417 56° Northeast 128 147 7,400  Level Houston Center
Mon 11:55:39 AM 31.1450 -92.4261 61° Northeast 127 146 7,400  Level Houston Center
Mon 11:56:41 AM 31.1644 -92.3919 56° Northeast 127 146 7,400  Level Houston Center
Mon 11:57:43 AM 31.1828 -92.3564 59° Northeast 127 146 7,400  Level Houston Center
Mon 11:58:46 AM 31.2067 -92.3156 56° Northeast 128 147 7,400  Level Houston Center
Mon 11:59:48 AM 31.2250 -92.2803 59° Northeast 129 148 7,400  Level Houston Center
Mon 12:00:48 PM 31.2439 -92.2492 55° Northeast 125 144 7,400  Level Houston Center
Mon 12:01:48 PM 31.2644 -92.2131 56° Northeast 126 145 7,400  Level Houston Center
Mon 12:02:49 PM 31.2831 -92.1797 57° Northeast 127 146 7,400  Level Houston Center
Mon 12:03:56 PM 31.3017 -92.1439 59° Northeast 127 146 7,400  Level Houston Center
Mon 12:04:44 PM 31.3181 -92.1128 58° Northeast 124 143 7,400  Level Houston Center
Mon 12:05:45 PM 31.3386 -92.0767 56° Northeast 126 145 7,400  Level Houston Center
Mon 12:07:02 PM 31.3619 -92.0356 56° Northeast 125 144 7,400  Level Houston Center
Mon 12:07:46 PM 31.3778 -92.0072 57° Northeast 129 148 7,400  Level Houston Center
Mon 12:08:46 PM 31.3964 -91.9736 57° Northeast 128 147 7,400  Level Houston Center
Mon 12:10:09 PM 31.4236 -91.9231 58° Northeast 128 147 7,400  Level Houston Center
Mon 12:12:13 PM 31.4619 -91.8539 57° Northeast 127 146 7,400  Level Houston Center
Mon 12:13:15 PM 31.4811 -91.8183 58° Northeast 128 147 7,400  Level Houston Center
Mon 12:14:17 PM 31.4997 -91.7828 58° Northeast 128 147 7,400  Level Houston Center
Mon 12:16:21 PM 31.5422 -91.7061 57° Northeast 128 147 7,400  Level Houston Center
Mon 12:17:24 PM 31.5614 -91.6708 57° Northeast 128 147 7,400  Level Houston Center
Mon 12:18:26 PM 31.5817 -91.6358 56° Northeast 129 148 7,400  Level Houston Center
Mon 12:19:28 PM 31.6014 -91.6003 57° Northeast 130 150 7,400  Level Houston Center
Mon 12:20:30 PM 31.6211 -91.5644 57° Northeast 130 150 7,400  Level Houston Center
Mon 12:22:34 PM 31.6628 -91.4864 58° Northeast 129 148 7,400  Level Houston Center
Mon 12:23:36 PM 31.6819 -91.4508 58° Northeast 129 148 7,400 48 Level Houston Center
Mon 12:24:38 PM 31.6997 -91.4142 60° Northeast 130 150 7,500  Climbing Houston Center
Mon 12:25:40 PM 31.7200 -91.3772 57° Northeast 131 151 7,400 -48 Descending Houston Center
Mon 12:26:43 PM 31.7400 -91.3419 56° Northeast 131 151 7,400  Level Houston Center
Mon 12:28:47 PM 31.7847 -91.2631 56° Northeast 132 152 7,400  Level Houston Center
Mon 12:29:49 PM 31.8047 -91.2269 57° Northeast 133 153 7,400  Level Houston Center
Mon 12:30:51 PM 31.8244 -91.1900 58° Northeast 133 153 7,400  Level Houston Center
Mon 12:31:53 PM 31.8419 -91.1536 60° Northeast 131 151 7,400  Level Houston Center
Mon 12:32:55 PM 31.8600 -91.1156 61° Northeast 132 152 7,400  Level Houston Center
Mon 12:33:57 PM 31.8844 -91.0711 57° Northeast 134 154 7,400  Level Houston Center
Mon 12:34:59 PM 31.9031 -91.0344 59° Northeast 133 153 7,400  Level Houston Center
Mon 12:36:02 PM 31.9244 -90.9983 55° Northeast 133 153 7,400  Level Houston Center
Mon 12:37:04 PM 31.9442 -90.9606 58° Northeast 134 154 7,400  Level Houston Center
Mon 12:38:06 PM 31.9636 -90.9242 58° Northeast 134 154 7,400  Level Houston Center
Mon 12:39:08 PM 31.9853 -90.8792 60° Northeast 132 152 7,400  Level Houston Center
Mon 12:40:10 PM 32.0042 -90.8422 59° Northeast 132 152 7,400  Level Houston Center
Mon 12:42:14 PM 32.0444 -90.7694 57° Northeast 132 152 7,400  Level Houston Center
Mon 12:43:16 PM 32.0656 -90.7325 56° Northeast 134 154 7,400  Level Houston Center

Login

Don't have an account? Register now (free) for customized features, flight alerts, and more!